SAST,Max TemperatureF,Mean TemperatureF,Min TemperatureF,Max Dew PointF,MeanDew PointF,Min DewpointF,Max Humidity, Mean Humidity, Min Humidity, Max Sea Level PressureIn, Mean Sea Level PressureIn, Min Sea Level PressureIn, Max VisibilityMiles, Mean VisibilityMiles, Min VisibilityMiles, Max Wind SpeedMPH, Mean Wind SpeedMPH, Max Gust SpeedMPH,PrecipitationIn, CloudCover, Events, WindDirDegrees
2013-7-1,59,52,46,54,48,44,94,85,67,30.19,30.16,30.12,12,6,1,10,4,,0.16,5,,324
2013-7-2,58,54,51,52,50,48,94,90,78,30.16,30.11,30.06,19,6,2,16,6,,0.12,7,Rain,286
2013-7-3,58,52,46,51,48,43,94,86,71,30.27,30.21,30.15,12,6,3,9,6,,0.08,5,Rain,303
2013-7-4,59,52,46,52,48,43,94,82,65,30.35,30.26,30.15,12,7,3,17,7,,0.00,5,Rain,79
2013-7-5,70,60,49,54,49,46,88,72,37,30.09,29.98,29.88,12,8,6,12,6,,0.00,1,,24
2013-7-6,67,57,47,53,49,42,87,68,30,30.04,29.97,29.89,19,16,12,10,5,,0.00,,,48
2013-7-7,66,54,43,50,43,36,87,62,37,30.23,30.15,30.04,19,14,12,10,5,,0.00,,,76
2013-7-8,66,55,44,52,46,41,94,74,47,30.33,30.23,30.15,12,10,6,10,5,,0.00,1,,315
2013-7-9,63,53,43,54,48,42,100,84,57,30.42,30.34,30.27,12,7,0,8,3,,0.00,3,Fog,25
2013-7-10,68,54,41,54,46,40,93,73,36,30.40,30.31,30.21,19,14,12,7,3,,0.00,,,14
2013-7-11,80,63,46,52,46,41,82,52,23,30.19,30.11,29.97,12,12,12,17,5,,0.00,,,338
2013-7-12,81,68,56,48,46,43,38,30,19,30.06,29.96,29.89,12,12,12,31,17,47,0.00,,,346
2013-7-13,66,60,53,55,49,43,94,62,21,30.21,30.03,29.88,19,8,4,49,20,39,0.02,4,Rain,272
2013-7-14,56,53,50,52,50,48,94,88,75,30.30,30.22,30.09,12,7,3,29,9,,0.04,7,Rain,61
2013-7-15,66,58,51,54,50,48,94,81,47,30.09,29.99,29.89,12,8,6,31,7,24,0.00,3,Rain,302
2013-7-16,65,58,51,52,48,45,88,73,47,30.21,30.13,30.06,19,8,6,18,6,,0.00,5,,131
2013-7-17,64,53,42,55,48,41,88,76,45,30.24,30.16,30.06,19,9,6,38,9,34,0.00,1,,91
2013-7-18,65,56,47,50,44,37,88,63,28,30.04,29.98,29.89,12,8,6,21,9,,0.00,2,,323
2013-7-19,65,58,52,52,45,39,82,60,40,30.12,30.00,29.92,19,8,6,24,16,,0.00,5,Rain,297
2013-7-20,65,57,49,51,47,43,82,69,43,30.39,30.22,30.12,19,8,6,24,13,37,0.01,4,,278
2013-7-21,65,56,46,48,46,42,87,71,45,30.43,30.35,30.24,19,9,6,12,7,,0.00,3,,320
2013-7-22,76,58,40,46,41,34,93,63,12,30.21,29.98,29.80,12,10,6,17,5,,0.00,3,Fog,327
2013-7-23,55,48,41,46,43,37,95,79,66,30.09,29.90,29.77,19,8,1,26,9,,0.08,6,Fog-Rain,292
2013-7-24,59,50,41,43,38,35,81,65,34,30.38,30.27,30.12,19,10,6,16,7,,0.00,2,,308
2013-7-25,70,54,38,46,40,34,87,64,28,30.35,30.26,30.15,12,12,12,10,4,,0.00,,,5
2013-7-26,75,59,43,52,46,41,93,72,36,30.12,29.92,29.77,12,11,6,6,4,,0.00,1,,6
2013-7-27,58,54,48,50,47,43,94,76,52,30.01,29.87,29.77,19,7,3,15,10,,0.02,5,Rain,275
2013-7-28,61,52,43,43,39,36,87,62,36,30.36,30.16,30.04,12,8,6,21,11,31,0.00,3,,290
2013-7-29,64,54,45,48,40,36,82,60,30,30.54,30.46,30.39,12,8,6,22,11,,0.00,3,,292
2013-7-30,62,52,43,49,44,39,94,75,47,30.56,30.50,30.42,12,9,4,10,5,,0.00,2,,34
2013-7-31,71,56,40,48,43,37,93,68,25,30.42,30.36,30.30,12,12,12,6,4,,0.00,,,34